createdAt,value
2022-10-30T00:02:19.815Z,4.30
2022-10-30T00:04:49.732Z,4.80
2022-10-30T00:12:47.079Z,4.68
2022-10-30T00:15:15.702Z,4.43
2022-10-30T00:17:44.153Z,4.80
2022-10-30T00:20:14.307Z,5.30
2022-10-30T00:22:42.699Z,4.95
2022-10-30T00:27:54.254Z,4.70
2022-10-30T00:33:18.784Z,5.10
2022-10-30T00:35:51.555Z,5.00
2022-10-30T00:38:20.472Z,4.95
2022-10-30T00:41:09.126Z,5.55
2022-10-30T00:43:59.082Z,5.45
2022-10-30T00:49:42.521Z,5.10
2022-10-30T00:55:13.995Z,5.10
2022-10-30T01:03:42.868Z,4.63
2022-10-30T01:09:15.302Z,5.15
2022-10-30T01:11:44.094Z,4.95
2022-10-30T01:17:35.826Z,4.63
2022-10-30T01:20:09.557Z,4.82
2022-10-30T01:25:37.298Z,5.45
2022-10-30T01:31:08.223Z,5.05
2022-10-30T01:33:43.154Z,5.45
2022-10-30T01:36:18.906Z,5.72
2022-10-30T01:38:49.757Z,4.95
2022-10-30T01:41:19.724Z,5.40
2022-10-30T01:46:33.454Z,6.00
2022-10-30T01:49:11.511Z,5.70
2022-10-30T01:51:44.886Z,5.63
2022-10-30T01:54:21.338Z,5.47
2022-10-30T01:56:56.969Z,5.22
2022-10-30T01:59:26.660Z,5.50
2022-10-30T02:01:56.466Z,5.65
2022-10-30T02:04:25.348Z,5.55
2022-10-30T02:06:53.750Z,5.20
2022-10-30T02:09:22.198Z,5.60
2022-10-30T02:11:51.772Z,5.28
2022-10-30T02:14:22.394Z,6.03
2022-10-30T02:16:52.167Z,5.53
2022-10-30T02:19:22.163Z,5.65
2022-10-30T02:21:54.919Z,5.20
2022-10-30T02:24:23.437Z,5.50
2022-10-30T02:26:51.820Z,5.43
2022-10-30T02:29:21.919Z,5.38
2022-10-30T02:31:50.361Z,5.40
2022-10-30T02:34:18.845Z,5.82
2022-10-30T02:36:47.435Z,5.78
2022-10-30T02:39:18.176Z,5.28
2022-10-30T02:41:46.544Z,5.88
2022-10-30T02:44:14.903Z,6.13
2022-10-30T02:46:43.262Z,5.78
2022-10-30T02:49:11.592Z,5.47
2022-10-30T02:51:39.953Z,5.45
2022-10-30T02:54:08.293Z,5.68
2022-10-30T02:56:38.063Z,5.93
2022-10-30T02:59:06.398Z,5.53
2022-10-30T03:01:34.775Z,5.47
2022-10-30T03:04:03.170Z,5.85
2022-10-30T03:06:31.512Z,5.70
2022-10-30T03:08:59.967Z,5.55
2022-10-30T03:11:28.382Z,6.35
2022-10-30T03:13:58.074Z,5.18
2022-10-30T03:16:29.387Z,5.55
2022-10-30T03:18:57.812Z,5.20
2022-10-30T03:21:27.026Z,5.63
2022-10-30T03:23:55.646Z,5.35
2022-10-30T03:26:24.049Z,5.97
2022-10-30T03:28:52.373Z,6.05
2022-10-30T03:31:22.093Z,6.43
2022-10-30T03:33:50.421Z,5.88
2022-10-30T03:36:18.777Z,6.45
2022-10-30T03:38:47.078Z,6.07
2022-10-30T03:41:15.449Z,6.13
2022-10-30T03:43:43.759Z,6.18
2022-10-30T03:46:12.103Z,6.22
2022-10-30T03:48:41.816Z,5.50
2022-10-30T03:51:10.162Z,6.63
2022-10-30T03:53:38.466Z,6.55
2022-10-30T03:56:07.172Z,6.20
2022-10-30T03:58:35.510Z,6.55
2022-10-30T04:01:03.967Z,6.13
2022-10-30T04:03:32.338Z,5.97
2022-10-30T04:06:02.150Z,6.80
2022-10-30T04:08:30.858Z,6.38
2022-10-30T04:10:59.364Z,6.22
2022-10-30T04:13:27.869Z,7.00
2022-10-30T04:15:58.244Z,6.50
2022-10-30T04:18:27.128Z,6.63
2022-10-30T04:20:55.500Z,6.38
2022-10-30T04:23:25.202Z,7.13
2022-10-30T04:25:53.634Z,7.25
2022-10-30T04:28:22.150Z,6.40
2022-10-30T04:30:50.852Z,7.30
2022-10-30T04:33:19.191Z,5.97
2022-10-30T04:35:47.529Z,6.47
2022-10-30T04:38:16.540Z,6.68
2022-10-30T04:40:46.262Z,6.57
2022-10-30T04:43:15.394Z,6.70
2022-10-30T04:45:43.841Z,6.53
2022-10-30T04:48:12.898Z,6.75
2022-10-30T04:50:41.356Z,6.97
2022-10-30T04:53:10.382Z,5.90
2022-10-30T04:58:43.783Z,5.85
2022-10-30T05:01:12.167Z,6.55
2022-10-30T05:03:40.502Z,6.32
2022-10-30T05:06:14.784Z,6.50
2022-10-30T05:08:43.286Z,6.60
2022-10-30T05:11:11.666Z,6.47
2022-10-30T05:13:39.992Z,6.75
2022-10-30T05:16:10.155Z,6.35
2022-10-30T05:18:38.472Z,6.10
2022-10-30T05:21:07.354Z,6.57
2022-10-30T05:23:35.688Z,6.00
2022-10-30T05:26:04.156Z,6.75
2022-10-30T05:28:32.458Z,6.35
2022-10-30T05:31:00.804Z,6.35
2022-10-30T05:33:30.526Z,7.30
2022-10-30T05:38:29.591Z,6.63
2022-10-30T05:40:57.938Z,6.82
2022-10-30T05:43:26.354Z,6.50
2022-10-30T05:45:54.731Z,6.75
2022-10-30T05:48:23.087Z,6.75
2022-10-30T05:50:51.467Z,7.00
2022-10-30T05:53:19.782Z,7.13
2022-10-30T05:55:49.506Z,6.28
2022-10-30T05:58:18.002Z,7.00
2022-10-30T06:00:46.415Z,7.03
2022-10-30T06:03:15.178Z,6.95
2022-10-30T06:05:46.552Z,6.75
2022-10-30T06:08:16.198Z,7.25
2022-10-30T06:10:44.676Z,7.05
2022-10-30T06:13:14.382Z,7.03
2022-10-30T06:15:42.721Z,6.95
2022-10-30T06:18:11.106Z,6.60
2022-10-30T06:20:39.420Z,6.70
2022-10-30T06:23:08.995Z,6.90
2022-10-30T06:25:41.039Z,7.35
2022-10-30T06:28:09.947Z,6.10
2022-10-30T06:30:39.704Z,6.75
2022-10-30T06:33:08.469Z,6.55
2022-10-30T06:35:36.854Z,6.25
2022-10-30T06:38:05.558Z,6.72
2022-10-30T06:40:34.068Z,7.13
2022-10-30T06:43:02.731Z,6.20
2022-10-30T06:45:31.465Z,6.30
2022-10-30T06:48:01.915Z,6.63
2022-10-30T06:50:30.594Z,6.95
2022-10-30T06:52:58.953Z,7.68
2022-10-30T06:55:27.319Z,6.57
2022-10-30T06:57:56.640Z,6.78
2022-10-30T07:00:25.312Z,7.10
2022-10-30T07:02:57.979Z,6.70
2022-10-30T07:05:27.972Z,6.80
2022-10-30T07:07:57.771Z,5.47
2022-10-30T07:10:26.135Z,7.38
2022-10-30T07:12:55.743Z,6.55
2022-10-30T07:15:24.344Z,6.40
2022-10-30T07:17:56.713Z,6.80
2022-10-30T07:20:25.450Z,7.35
2022-10-30T07:22:57.423Z,6.22
2022-10-30T07:25:25.854Z,7.00
2022-10-30T07:27:55.262Z,7.20
2022-10-30T07:33:02.103Z,6.65
2022-10-30T07:35:31.306Z,6.65
2022-10-30T07:38:05.183Z,6.50
2022-10-30T07:40:33.602Z,6.40
2022-10-30T07:43:03.260Z,6.88
2022-10-30T07:45:32.165Z,6.68
2022-10-30T07:48:01.104Z,6.53
2022-10-30T07:50:29.866Z,6.55
2022-10-30T07:52:58.203Z,7.03
2022-10-30T07:55:30.539Z,6.70
2022-10-30T07:57:59.179Z,6.43
2022-10-30T08:00:27.971Z,6.80
2022-10-30T08:02:58.649Z,5.90
2022-10-30T08:05:30.011Z,6.07
2022-10-30T08:08:00.824Z,6.10
2022-10-30T08:10:30.905Z,6.78
2022-10-30T08:12:59.272Z,6.63
2022-10-30T08:15:30.695Z,6.75
2022-10-30T08:17:59.189Z,6.05
2022-10-30T08:20:30.599Z,6.68
2022-10-30T08:22:59.680Z,5.82
2022-10-30T08:25:29.194Z,6.05
2022-10-30T08:27:59.920Z,6.00
2022-10-30T08:30:29.533Z,6.43
2022-10-30T08:32:59.952Z,5.85
2022-10-30T08:35:28.897Z,5.85
2022-10-30T08:37:57.871Z,6.18
2022-10-30T08:40:26.752Z,6.35
2022-10-30T08:42:55.447Z,5.88
2022-10-30T08:45:29.911Z,5.60
2022-10-30T08:48:00.516Z,6.80
2022-10-30T08:50:29.475Z,5.57
2022-10-30T08:52:58.322Z,5.63
2022-10-30T08:55:26.830Z,5.68
2022-10-30T08:57:55.179Z,5.95
2022-10-30T09:00:24.951Z,5.68
2022-10-30T09:02:53.290Z,5.00
2022-10-30T09:05:21.787Z,4.80
2022-10-30T09:07:50.344Z,5.57
2022-10-30T09:10:18.852Z,5.50
2022-10-30T09:12:47.185Z,5.95
2022-10-30T09:15:15.573Z,5.80
2022-10-30T09:17:45.305Z,5.20
2022-10-30T09:20:13.710Z,4.97
2022-10-30T09:22:43.229Z,5.15
2022-10-30T09:25:11.600Z,5.13
2022-10-30T09:27:40.073Z,5.80
2022-10-30T09:32:59.174Z,5.97
2022-10-30T09:35:27.981Z,5.22
2022-10-30T09:37:56.750Z,5.28
2022-10-30T09:40:30.785Z,5.50
2022-10-30T09:43:02.155Z,5.20
2022-10-30T09:45:50.619Z,5.05
2022-10-30T09:48:27.892Z,5.03
2022-10-30T09:51:00.989Z,4.57
2022-10-30T09:53:32.585Z,5.03
2022-10-30T09:56:06.042Z,5.57
2022-10-30T09:58:36.854Z,5.13
2022-10-30T10:01:10.042Z,4.78
2022-10-30T10:03:54.098Z,5.20
2022-10-30T10:06:22.922Z,6.05
2022-10-30T10:08:53.679Z,4.65
2022-10-30T10:11:24.713Z,5.03
2022-10-30T10:13:55.606Z,4.85
2022-10-30T10:16:27.026Z,5.13
2022-10-30T10:18:59.137Z,4.50
2022-10-30T10:21:29.181Z,4.50
2022-10-30T10:23:58.306Z,4.85
2022-10-30T10:26:31.231Z,5.20
2022-10-30T10:29:08.889Z,4.30
2022-10-30T10:31:43.084Z,4.57
2022-10-30T10:34:23.638Z,4.90
2022-10-30T10:36:57.659Z,5.25
2022-10-30T10:39:32.273Z,4.78
2022-10-30T10:42:06.900Z,4.93
2022-10-30T10:44:43.893Z,4.80
2022-10-30T10:47:20.489Z,4.60
2022-10-30T10:49:56.042Z,4.93
2022-10-30T10:52:25.681Z,4.50
2022-10-30T10:54:55.368Z,4.78
2022-10-30T10:57:28.008Z,5.20
2022-10-30T10:59:58.558Z,4.63
2022-10-30T11:02:31.349Z,4.90
2022-10-30T11:05:06.305Z,4.82
2022-10-30T11:07:39.016Z,4.32
2022-10-30T11:10:13.576Z,5.07
2022-10-30T11:12:42.278Z,4.63
2022-10-30T11:15:20.595Z,5.00
2022-10-30T11:17:52.888Z,4.50
2022-10-30T11:20:23.995Z,4.70
2022-10-30T11:22:52.573Z,4.50
2022-10-30T11:25:25.424Z,3.92
2022-10-30T11:27:57.779Z,4.63
2022-10-30T11:30:28.585Z,4.45
2022-10-30T11:32:57.547Z,4.40
2022-10-30T11:35:27.518Z,4.40
2022-10-30T11:38:13.206Z,5.07
2022-10-30T11:40:42.199Z,5.38
2022-10-30T11:43:11.331Z,4.78
2022-10-30T11:45:40.709Z,4.82
2022-10-30T11:48:13.846Z,4.63
2022-10-30T11:50:47.329Z,4.82
2022-10-30T11:53:21.594Z,4.97
2022-10-30T11:55:51.077Z,5.18
2022-10-30T11:58:25.192Z,4.60
2022-10-30T12:01:00.454Z,4.53
2022-10-30T12:03:30.325Z,4.93
2022-10-30T12:06:10.479Z,4.82
2022-10-30T12:08:38.858Z,4.63
2022-10-30T12:11:07.645Z,4.72
2022-10-30T12:13:39.648Z,4.65
2022-10-30T12:16:10.529Z,5.15
2022-10-30T12:18:39.089Z,4.85
2022-10-30T12:21:07.532Z,4.70
2022-10-30T12:23:37.314Z,4.70
2022-10-30T12:26:10.837Z,4.97
2022-10-30T12:28:39.982Z,4.40
2022-10-30T12:31:11.262Z,4.57
2022-10-30T12:33:41.766Z,4.95
2022-10-30T12:36:13.083Z,4.90
2022-10-30T12:38:46.077Z,5.03
2022-10-30T12:41:16.917Z,5.13
2022-10-30T12:43:47.712Z,4.72
2022-10-30T12:46:30.081Z,5.25
2022-10-30T12:49:02.809Z,4.60
2022-10-30T12:51:35.537Z,4.82
2022-10-30T12:54:07.136Z,5.20
2022-10-30T12:56:38.237Z,4.68
2022-10-30T12:59:14.528Z,4.47
2022-10-30T13:01:46.369Z,4.85
2022-10-30T13:04:17.810Z,5.30
2022-10-30T13:06:49.329Z,4.78
2022-10-30T13:09:20.832Z,5.10
2022-10-30T13:11:53.262Z,4.63
2022-10-30T13:14:23.715Z,4.97
2022-10-30T13:16:53.479Z,4.85
2022-10-30T13:19:21.811Z,5.75
2022-10-30T13:21:53.380Z,5.03
2022-10-30T13:24:25.456Z,4.70
2022-10-30T13:26:56.317Z,4.53
2022-10-30T13:29:29.343Z,5.05
2022-10-30T13:32:02.381Z,4.57
2022-10-30T13:34:34.346Z,5.10
2022-10-30T13:37:06.312Z,4.22
2022-10-30T13:39:40.093Z,4.75
2022-10-30T13:42:15.110Z,4.82
2022-10-30T13:44:48.791Z,5.93
2022-10-30T13:47:23.587Z,5.35
2022-10-30T13:50:00.029Z,4.93
2022-10-30T13:52:30.061Z,4.90
2022-10-30T13:55:03.697Z,4.90
2022-10-30T13:57:36.206Z,5.72
2022-10-30T14:00:07.630Z,4.75
2022-10-30T14:02:41.995Z,4.72
2022-10-30T14:05:17.454Z,5.05
2022-10-30T14:07:48.327Z,5.55
2022-10-30T14:10:22.194Z,5.38
2022-10-30T14:12:54.467Z,5.10
2022-10-30T14:15:28.441Z,5.35
2022-10-30T14:18:15.265Z,4.55
2022-10-30T14:20:44.520Z,5.50
2022-10-30T14:23:15.160Z,5.03
2022-10-30T14:25:44.944Z,5.30
2022-10-30T14:28:20.715Z,5.55
2022-10-30T14:30:49.151Z,4.35
2022-10-30T14:33:35.792Z,4.80
2022-10-30T14:36:17.779Z,5.03
2022-10-30T14:38:54.211Z,5.40
2022-10-30T14:41:33.638Z,4.82
2022-10-30T14:44:21.542Z,5.03
2022-10-30T14:47:00.860Z,5.30
2022-10-30T14:49:38.669Z,4.85
2022-10-30T14:52:12.906Z,5.13
2022-10-30T14:54:43.098Z,4.90
2022-10-30T14:57:23.568Z,5.07
2022-10-30T15:00:11.973Z,4.45
2022-10-30T15:02:55.214Z,5.20
2022-10-30T15:05:33.049Z,5.25
2022-10-30T15:08:05.960Z,7.13
2022-10-30T15:10:36.150Z,5.38
2022-10-30T15:13:15.330Z,5.05
2022-10-30T15:15:43.860Z,5.07
2022-10-30T15:18:17.127Z,5.22
2022-10-30T15:20:46.241Z,4.47
2022-10-30T15:23:20.282Z,5.68
2022-10-30T15:25:49.625Z,4.95
2022-10-30T15:28:20.737Z,5.47
2022-10-30T15:31:00.335Z,5.55
2022-10-30T15:33:30.404Z,5.57
2022-10-30T15:35:58.865Z,4.85
2022-10-30T15:38:27.193Z,5.55
2022-10-30T15:40:58.437Z,5.55
2022-10-30T15:43:30.381Z,5.18
2022-10-30T15:45:58.739Z,5.38
2022-10-30T15:48:28.737Z,5.63
2022-10-30T15:51:03.930Z,6.07
2022-10-30T15:53:36.760Z,5.80
2022-10-30T15:56:05.390Z,5.45
2022-10-30T15:58:36.641Z,6.70
2022-10-30T16:01:05.183Z,6.15
2022-10-30T16:03:33.565Z,5.55
2022-10-30T16:06:09.104Z,6.78
2022-10-30T16:08:44.638Z,6.50
2022-10-30T16:11:13.162Z,6.80
2022-10-30T16:13:43.242Z,6.80
2022-10-30T16:18:49.543Z,7.68
2022-10-30T16:21:19.009Z,7.57
2022-10-30T16:23:52.622Z,6.88
2022-10-30T16:26:25.932Z,7.68
2022-10-30T16:28:55.627Z,7.72
2022-10-30T16:31:24.820Z,7.53
2022-10-30T16:33:53.347Z,8.60
2022-10-30T16:36:21.976Z,8.38
2022-10-30T16:38:50.683Z,11.57
2022-10-30T16:41:25.721Z,10.73
2022-10-30T16:44:16.447Z,11.50
2022-10-30T16:46:48.011Z,12.10
2022-10-30T16:49:18.230Z,12.20
2022-10-30T16:51:46.721Z,11.18
2022-10-30T16:54:23.158Z,11.48
2022-10-30T16:56:52.889Z,10.82
2022-10-30T16:59:26.586Z,9.20
2022-10-30T17:01:57.434Z,9.68
2022-10-30T17:04:26.323Z,10.55
2022-10-30T17:07:04.493Z,11.98
2022-10-30T17:09:36.234Z,11.20
2022-10-30T17:12:15.580Z,12.02
2022-10-30T17:14:55.476Z,12.43
2022-10-30T17:17:28.275Z,11.02
2022-10-30T17:20:03.899Z,9.57
2022-10-30T17:22:32.519Z,9.27
2022-10-30T17:25:01.354Z,9.90
2022-10-30T17:27:34.219Z,8.88
2022-10-30T17:30:03.951Z,7.78
2022-10-30T17:32:43.746Z,8.93
2022-10-30T17:35:15.422Z,8.65
2022-10-30T17:37:43.836Z,8.13
2022-10-30T17:40:12.816Z,8.25
2022-10-30T17:42:41.452Z,8.32
2022-10-30T17:45:13.103Z,8.45
2022-10-30T17:47:41.451Z,8.60
2022-10-30T17:50:10.110Z,8.85
2022-10-30T17:52:38.415Z,8.40
2022-10-30T17:55:18.917Z,8.52
2022-10-30T17:57:47.244Z,8.25
2022-10-30T18:00:17.362Z,8.55
2022-10-30T18:02:45.722Z,9.60
2022-10-30T18:05:17.168Z,8.20
2022-10-30T18:07:46.021Z,8.10
2022-10-30T18:10:15.477Z,8.48
2022-10-30T18:12:45.015Z,8.68
2022-10-30T18:15:31.396Z,9.40
2022-10-30T18:18:00.066Z,9.25
2022-10-30T18:20:29.149Z,10.10
2022-10-30T18:22:58.340Z,8.35
2022-10-30T18:25:27.859Z,9.38
2022-10-30T18:27:56.174Z,9.60
2022-10-30T18:30:24.545Z,9.98
2022-10-30T18:32:54.225Z,10.38
2022-10-30T18:35:27.119Z,9.77
2022-10-30T18:37:55.462Z,9.52
2022-10-30T18:40:23.883Z,9.32
2022-10-30T18:42:52.384Z,9.05
2022-10-30T18:45:22.503Z,9.80
2022-10-30T18:47:51.297Z,9.98
2022-10-30T18:50:22.132Z,9.80
2022-10-30T18:52:50.604Z,10.18
2022-10-30T18:55:21.344Z,9.85
2022-10-30T18:57:50.048Z,9.68
2022-10-30T19:00:19.801Z,9.02
2022-10-30T19:02:48.211Z,9.18
2022-10-30T19:05:24.623Z,9.48
2022-10-30T19:07:52.959Z,9.25
2022-10-30T19:10:21.347Z,8.60
2022-10-30T19:13:10.998Z,9.27
2022-10-30T19:15:39.333Z,9.23
2022-10-30T19:18:07.802Z,9.65
2022-10-30T19:21:02.651Z,9.27
2022-10-30T19:23:27.471Z,8.75
2022-10-30T19:25:56.096Z,8.95
2022-10-30T19:28:25.824Z,9.00
2022-10-30T19:30:54.965Z,10.32
2022-10-30T19:33:24.179Z,9.15
2022-10-30T19:35:57.295Z,9.15
2022-10-30T19:38:25.892Z,9.20
2022-10-30T19:40:54.632Z,10.13
2022-10-30T19:43:23.022Z,9.80
2022-10-30T19:45:55.566Z,9.07
2022-10-30T19:48:55.359Z,10.07
2022-10-30T19:51:14.231Z,9.75
2022-10-30T19:53:42.660Z,9.10
2022-10-30T19:56:11.927Z,10.98
2022-10-30T19:58:40.452Z,9.85
2022-10-30T20:01:09.018Z,9.00
2022-10-30T20:03:37.419Z,9.10
2022-10-30T20:06:06.088Z,9.32
2022-10-30T20:08:35.880Z,9.25
2022-10-30T20:11:04.640Z,9.25
2022-10-30T20:13:33.742Z,10.43
2022-10-30T20:16:04.941Z,10.30
2022-10-30T20:18:34.495Z,9.45
2022-10-30T20:21:05.247Z,10.27
2022-10-30T20:23:33.705Z,8.70
2022-10-30T20:26:04.733Z,8.65
2022-10-30T20:28:33.719Z,8.48
2022-10-30T20:31:02.172Z,8.85
2022-10-30T20:33:30.865Z,8.20
2022-10-30T20:35:59.399Z,8.55
2022-10-30T20:38:29.343Z,8.00
2022-10-30T20:40:58.497Z,8.80
2022-10-30T20:43:32.403Z,9.57
2022-10-30T20:46:00.918Z,8.23
2022-10-30T20:48:31.230Z,8.38
2022-10-30T20:51:00.392Z,8.75
2022-10-30T20:53:29.427Z,8.55
2022-10-30T20:55:58.202Z,9.27
2022-10-30T20:58:30.871Z,9.13
2022-10-30T21:00:59.889Z,9.65
2022-10-30T21:03:28.527Z,9.30
2022-10-30T21:05:58.125Z,10.25
2022-10-30T21:08:26.671Z,9.38
2022-10-30T21:10:55.060Z,10.48
2022-10-30T21:13:23.544Z,12.23
2022-10-30T21:15:53.278Z,14.25
2022-10-30T21:18:21.838Z,15.82
2022-10-30T21:20:50.527Z,13.40
2022-10-30T21:23:18.906Z,15.13
2022-10-30T21:25:47.251Z,15.70
2022-10-30T21:28:15.776Z,16.63
2022-10-30T21:30:44.272Z,18.08
2022-10-30T21:33:14.118Z,18.83
2022-10-30T21:35:42.760Z,18.67
2022-10-30T21:38:12.885Z,18.58
2022-10-30T21:40:41.349Z,19.48
2022-10-30T21:43:10.259Z,19.38
2022-10-30T21:45:39.032Z,19.40
2022-10-30T21:48:07.918Z,17.90
2022-10-30T21:50:37.709Z,15.25
2022-10-30T21:53:06.274Z,15.07
2022-10-30T21:55:34.630Z,13.60
2022-10-30T21:58:03.118Z,14.00
2022-10-30T22:00:31.525Z,12.90
2022-10-30T22:02:59.864Z,13.38
2022-10-30T22:05:28.233Z,13.40
2022-10-30T22:07:58.181Z,12.75
2022-10-30T22:10:26.815Z,13.05
2022-10-30T22:12:55.127Z,13.15
2022-10-30T22:15:23.781Z,14.27
2022-10-30T22:17:52.133Z,13.10
2022-10-30T22:20:20.520Z,13.23
2022-10-30T22:22:48.824Z,13.63
2022-10-30T22:25:18.530Z,14.05
2022-10-30T22:27:47.352Z,13.70
2022-10-30T22:30:16.016Z,13.02
2022-10-30T22:32:44.356Z,13.52
2022-10-30T22:35:12.696Z,13.68
2022-10-30T22:37:41.128Z,13.25
2022-10-30T22:40:09.907Z,12.57
2022-10-30T22:42:39.581Z,13.00
2022-10-30T22:45:08.583Z,13.02
2022-10-30T22:47:36.966Z,12.52
2022-10-30T22:50:05.551Z,12.65
2022-10-30T22:52:33.898Z,12.73
2022-10-30T22:55:02.245Z,13.35
2022-10-30T22:57:30.539Z,12.98
2022-10-30T23:00:00.232Z,12.52
2022-10-30T23:02:28.527Z,12.98
2022-10-30T23:04:56.906Z,12.07
2022-10-30T23:07:25.308Z,12.52
2022-10-30T23:09:53.665Z,13.35
2022-10-30T23:12:21.991Z,12.77
2022-10-30T23:14:50.364Z,13.05
2022-10-30T23:17:20.032Z,13.45
2022-10-30T23:19:48.373Z,13.38
2022-10-30T23:22:16.730Z,12.93
2022-10-30T23:24:45.061Z,12.55
2022-10-30T23:27:13.379Z,13.10
2022-10-30T23:29:41.736Z,12.27
2022-10-30T23:32:10.071Z,11.35
2022-10-30T23:34:39.798Z,10.77
2022-10-30T23:37:08.469Z,10.35
2022-10-30T23:39:36.844Z,11.45
2022-10-30T23:42:05.349Z,11.57
2022-10-30T23:44:33.717Z,11.40
2022-10-30T23:47:02.040Z,11.23
2022-10-30T23:49:34.005Z,11.23
2022-10-30T23:52:04.119Z,11.30
2022-10-30T23:54:32.444Z,11.25
2022-10-30T23:57:00.776Z,11.65
2022-10-30T23:59:29.131Z,12.10
